Ana Sayfa
METAR-TAF:

METAR-TAF

Havaalanları :

Nouakchott, Moritanya

Enlem: 18-18-36N, Boylam: 015-58-11W, yükseklik: 3 m

Güncel hava durumu gözlemi

Rapor saat 00:00 UTC de 40 dakika önce yapıldı.
Rüzgar kuzeybatıdan 6 kt
Sıcaklık 24°C
Nem 78%
Basınç 1011 hPa
Görüş mesafesi: 8000 m

METAR: GQNO 210000Z 32006KT 8000 NSC 24/20 Q1011 NOSIG

Saat: 00:40 (00:40 UTC)

Tahmin

Rapor saat 23:00 UTC de 1 saat ve 40 dakika önce yapıldı.
Ayın 21'si saat 00 UTC'den ayın 22'si saat 06 UTC'ye kadar geçerli Tahmin
Rüzgar kuzey/kuzeybatıdan 10 kt
Görüş mesafesi: 7000 m

TAF: GQNO 202300Z 2100/2206 34010KT 7000 NSC

4.000'den fazla havaalanı için hava durumu gözlemleri ve tahminleri (METAR ve TAF raporları).

Kullanılabilir istasyonlar harita üzerinde sarı ve kırmızı noktalarla gösterilir.

İstasyonun adını görmek için fareyi noktanın üzerinde gezdirin.

Sonrasında hava gözlem ve tahminlerini görmek için tıklayın.

Haritayı değiştirmek için: yaklaştırmak için siyah artı işaretli yeşil düğmeye ve uzaklaştırmak için de eksi işaretli düğmeye hızla tıklayın; bitişik haritalar için yeşil okları kullanın.


METAR-TAF: